CheckWX is a tool to help pilots better visualize weather data.  It is not intended as a substitute for an official pre-flight weather briefing.

08:35:42 UTC

FAUP METAR
Pierre Van Ryneveld Airport
Upington, South Africa
Current

36 mins ago

FAUP 230800Z 29002KT 9999 SCT012 17/11 Q1019 NOSIG
Observed
Apr-23 @ 08:00 UTC
Wind
  • 290° at 2 KTS
Visibility
10,000+ meters
Flight Rules
VFR
Cloud Levels
  • Scattered at 1,200' AGL
Temperature
17°C / 63°F
Dewpoint
11°C / 52°F
Humidity
68%
Altimeter
30.09" Hg
Pressure
1018.92 hPa
Previous

2 hours ago

FAUP 230700Z 27001KT 9999 FEW012 17/11 Q1018 NOSIG
Observed
Apr-23 @ 07:00 UTC
Wind
  • 270° at 1 KTS
Visibility
10,000+ meters
Flight Rules
VFR
Cloud Levels
  • Few at 1,200' AGL
Temperature
17°C / 63°F
Dewpoint
11°C / 52°F
Humidity
68%
Altimeter
30.06" Hg
Pressure
1017.92 hPa
Previous

3 hours ago

FAUP 230600Z 33002KT 9999 FEW012 14/11 Q1018 NOSIG
Observed
Apr-23 @ 06:00 UTC
Wind
  • 330° at 2 KTS
Visibility
10,000+ meters
Flight Rules
VFR
Cloud Levels
  • Few at 1,200' AGL
Temperature
14°C / 57°F
Dewpoint
11°C / 52°F
Humidity
82%
Altimeter
30.06" Hg
Pressure
1017.92 hPa